Time;durP1;ratioP1;P1;durP2;ratioP2;P2;SDS_P1;SDS_P2;PMS_P1;PMS_P2;Temp;Humidity;BMP_temperature;BMP_pressure;BME280_temperature;BME280_humidity;BME280_pressure;Samples;Min_cycle;Max_cycle;Signal;HPM_P1;HPM_P2
2021/06/12 00:02:01;;;;;;;7.35;3.28;;;;;;;16.30;65.13;94934.53;4966308;28;20050;-83
2021/06/12 00:04:31;;;;;;;5.30;3.25;;;;;;;16.30;65.36;94924.03;4955940;29;20040;-82
2021/06/12 00:06:59;;;;;;;7.60;3.53;;;;;;;16.28;66.20;94928.78;4968247;28;20062;-82
2021/06/12 00:09:26;;;;;;;3.67;3.20;;;;;;;16.33;66.31;94920.88;4969433;28;20038;-83
2021/06/12 00:11:52;;;;;;;3.78;3.15;;;;;;;16.34;66.67;94922.44;4941294;28;20560;-84
2021/06/12 00:14:17;;;;;;;3.40;3.20;;;;;;;16.33;66.61;94926.13;4971047;28;20045;-81
2021/06/12 00:16:43;;;;;;;6.57;3.53;;;;;;;16.33;66.56;94926.91;4958008;28;20043;-83
2021/06/12 00:19:08;;;;;;;4.20;2.90;;;;;;;16.31;66.89;94929.03;4966718;28;20525;-82
2021/06/12 00:21:36;;;;;;;5.03;3.58;;;;;;;16.29;67.08;94925.09;4950850;28;20039;-81
2021/06/12 00:24:06;;;;;;;5.25;3.67;;;;;;;16.24;67.02;94917.22;4965384;28;20077;-83
2021/06/12 00:26:31;;;;;;;12.30;3.65;;;;;;;16.24;67.01;94922.44;4949070;29;20047;-81
2021/06/12 00:28:57;;;;;;;31.23;3.53;;;;;;;16.22;66.98;94914.84;4961512;28;20028;-81
2021/06/12 00:31:22;;;;;;;11.18;4.03;;;;;;;16.23;67.38;94919.03;4965740;28;20053;-84
2021/06/12 00:33:48;;;;;;;7.35;3.88;;;;;;;16.19;67.18;94926.66;4956369;29;20031;-82
2021/06/12 00:36:13;;;;;;;6.47;4.22;;;;;;;16.18;66.79;94914.59;4965078;28;20039;-82
2021/06/12 00:38:39;;;;;;;8.55;4.18;;;;;;;16.17;66.93;94909.63;4974414;28;20050;-82
2021/06/12 00:41:06;;;;;;;6.03;4.15;;;;;;;16.18;67.23;94913.81;4972640;28;20046;-83
2021/06/12 00:43:32;;;;;;;7.65;3.78;;;;;;;16.11;67.28;94911.47;4966034;29;20166;-82
2021/06/12 00:45:57;;;;;;;9.38;3.97;;;;;;;16.12;67.41;94907.00;4954549;28;20120;-82
2021/06/12 00:48:27;;;;;;;13.05;3.95;;;;;;;16.12;66.85;94907.78;4968096;23;20122;-82
2021/06/12 00:50:52;;;;;;;7.88;3.75;;;;;;;16.09;66.63;94910.91;4961945;23;20046;-83
2021/06/12 00:53:19;;;;;;;3.55;3.25;;;;;;;16.04;67.13;94913.56;4937656;29;20444;-82
2021/06/12 00:55:47;;;;;;;6.05;3.90;;;;;;;16.02;67.08;94913.03;4920420;29;20404;-82
2021/06/12 00:58:13;;;;;;;10.82;3.92;;;;;;;16.04;66.85;94913.56;4897422;29;20334;-81
2021/06/12 01:00:38;;;;;;;9.32;3.67;;;;;;;15.95;67.60;94920.38;4918432;29;20404;-82
2021/06/12 01:03:04;;;;;;;8.80;4.00;;;;;;;15.93;66.98;94919.06;4935682;29;20047;-82
2021/06/12 01:05:30;;;;;;;9.93;3.92;;;;;;;15.90;67.30;94920.38;4904986;29;20043;-82
2021/06/12 01:07:55;;;;;;;7.85;3.50;;;;;;;15.87;67.81;94921.69;4923622;23;20128;-82
2021/06/12 01:10:21;;;;;;;4.28;3.65;;;;;;;15.85;67.37;94921.16;4925983;29;20044;-83
2021/06/12 01:13:04;;;;;;;16.27;3.80;;;;;;;15.87;67.03;94923.53;4901227;29;20032;-83
2021/06/12 01:15:48;;;;;;;8.95;4.63;;;;;;;15.87;67.01;94924.31;4903364;29;20075;-82
2021/06/12 01:18:22;;;;;;;7.88;4.07;;;;;;;15.89;66.80;94929.28;4915757;29;20526;-83
2021/06/12 01:20:58;;;;;;;5.60;4.18;;;;;;;15.83;67.56;94922.47;4900815;29;20048;-82
2021/06/12 01:23:43;;;;;;;13.80;4.13;;;;;;;15.87;66.98;94926.13;4913747;29;20552;-82
2021/06/12 01:26:17;;;;;;;6.25;3.90;;;;;;;15.90;67.27;94929.03;4916493;29;20134;-82
2021/06/12 01:28:58;;;;;;;3.83;3.40;;;;;;;15.92;67.27;94936.63;4902035;29;20063;-82
2021/06/12 01:31:24;;;;;;;9.18;4.03;;;;;;;15.92;67.48;94936.63;4916266;29;20135;-82
2021/06/12 01:33:49;;;;;;;4.13;3.72;;;;;;;16.01;66.99;94940.31;4901629;29;20046;-82
2021/06/12 01:36:15;;;;;;;6.20;3.75;;;;;;;15.97;66.42;94935.84;4883011;29;20082;-81
2021/06/12 01:38:45;;;;;;;4.82;3.90;;;;;;;16.01;66.51;94932.44;4899082;29;20043;-81
2021/06/12 01:41:12;;;;;;;8.52;3.22;;;;;;;16.02;66.65;94931.41;4917101;29;20052;-83
2021/06/12 01:43:37;;;;;;;4.97;3.88;;;;;;;16.03;66.06;94940.03;4899369;29;20063;-82
2021/06/12 01:46:05;;;;;;;11.68;3.58;;;;;;;16.01;66.29;94927.19;4902903;29;20496;-83
2021/06/12 01:48:31;;;;;;;3.72;3.47;;;;;;;16.11;65.50;94939.53;4909677;29;20040;-83
2021/06/12 01:51:00;;;;;;;3.50;3.30;;;;;;;16.11;65.28;94940.31;4904943;29;20051;-81
2021/06/12 01:53:31;;;;;;;4.45;3.53;;;;;;;16.15;65.71;94944.00;4921790;29;20068;-82
2021/06/12 01:59:01;;;;;;;7.10;3.72;;;;;;;16.08;65.05;94929.53;3702572;26;20058;-82
2021/06/12 02:01:27;;;;;;;3.17;2.83;;;;;;;16.07;65.26;94938.47;4983010;28;20054;-81
2021/06/12 02:03:53;;;;;;;3.10;2.90;;;;;;;16.13;65.62;94946.09;4969125;28;20023;-82
2021/06/12 02:06:19;;;;;;;3.95;3.30;;;;;;;16.09;65.60;94950.25;4955505;28;20074;-81
2021/06/12 02:08:45;;;;;;;16.90;3.63;;;;;;;16.04;65.78;94950.28;4989315;28;20026;-83
2021/06/12 02:11:12;;;;;;;6.60;3.60;;;;;;;16.06;65.97;94942.94;4965667;23;20039;-81
2021/06/12 02:13:37;;;;;;;6.63;3.40;;;;;;;16.06;65.59;94950.00;4970635;28;20035;-82
2021/06/12 02:16:03;;;;;;;6.93;3.40;;;;;;;16.06;65.63;94939.50;4921420;28;20027;-82
2021/06/12 02:18:28;;;;;;;3.53;3.17;;;;;;;16.05;64.62;94930.84;4949241;28;20088;-82
2021/06/12 02:20:54;;;;;;;5.03;3.45;;;;;;;16.14;64.86;94947.66;4970552;28;20049;-82
2021/06/12 02:23:21;;;;;;;9.07;4.07;;;;;;;16.12;65.31;94946.34;4967383;28;20061;-82
2021/06/12 02:25:47;;;;;;;12.25;3.75;;;;;;;16.09;65.70;94944.22;4957404;28;20035;-82
2021/06/12 02:28:12;;;;;;;11.27;4.40;;;;;;;16.13;65.64;94945.31;4959673;28;20035;-82
2021/06/12 02:30:54;;;;;;;6.25;3.40;;;;;;;16.11;64.68;94942.94;4951491;28;20035;-82
2021/06/12 02:33:19;;;;;;;4.78;2.90;;;;;;;16.10;64.59;94949.22;4952854;28;20034;-82
2021/06/12 02:35:44;;;;;;;11.50;4.32;;;;;;;16.09;65.33;94941.59;4935194;28;20058;-83
2021/06/12 02:38:16;;;;;;;14.95;3.92;;;;;;;16.10;65.75;94945.81;4935406;28;20113;-82
2021/06/12 02:40:42;;;;;;;13.85;4.45;;;;;;;16.07;65.53;94946.34;4956295;28;20055;-83
2021/06/12 02:43:07;;;;;;;8.52;3.90;;;;;;;16.00;66.06;94946.59;4958548;28;20495;-83
2021/06/12 02:45:33;;;;;;;11.60;4.30;;;;;;;15.97;66.52;94960.25;4964465;28;20050;-82
2021/06/12 02:48:00;;;;;;;13.00;5.20;;;;;;;15.96;66.47;94948.19;4956746;28;20042;-83
2021/06/12 02:50:27;;;;;;;14.75;4.13;;;;;;;15.98;66.00;94946.09;4958850;28;20047;-84
2021/06/12 02:52:53;;;;;;;18.00;4.40;;;;;;;15.98;66.32;94951.34;4964092;28;20504;-83
2021/06/12 02:55:20;;;;;;;13.48;3.88;;;;;;;15.94;66.73;94945.00;4957777;28;20499;-83
2021/06/12 02:57:47;;;;;;;19.13;4.53;;;;;;;15.95;66.47;94949.25;4952021;28;20422;-84
2021/06/12 03:00:13;;;;;;;13.82;4.60;;;;;;;15.96;66.29;94950.81;4968580;28;20043;-83
2021/06/12 03:02:42;;;;;;;14.10;5.10;;;;;;;15.91;66.52;94948.94;4988391;28;20023;-84
2021/06/12 03:05:16;;;;;;;29.77;6.57;;;;;;;15.92;66.96;94947.13;4972839;28;20091;-83
2021/06/12 03:07:44;;;;;;;11.65;5.53;;;;;;;15.95;66.66;94951.06;4952170;28;20035;-84
2021/06/12 03:10:10;;;;;;;9.70;4.22;;;;;;;15.94;66.19;94954.72;4950592;28;20054;-84
2021/06/12 03:12:35;;;;;;;5.10;4.50;;;;;;;16.01;65.46;94960.50;4954292;28;20031;-83
2021/06/12 03:15:01;;;;;;;5.13;4.20;;;;;;;16.02;64.67;94955.00;4962094;28;20056;-83
2021/06/12 03:17:26;;;;;;;12.80;4.22;;;;;;;16.02;64.84;94956.84;4974134;28;20503;-84
2021/06/12 03:19:52;;;;;;;9.32;4.38;;;;;;;16.00;64.61;94964.19;4948537;28;20027;-83
2021/06/12 03:22:17;;;;;;;3.45;3.17;;;;;;;16.02;64.11;94962.09;4946921;28;20129;-82
2021/06/12 03:24:43;;;;;;;3.13;2.92;;;;;;;16.07;63.21;94965.47;4931225;28;20046;-82
2021/06/12 03:27:08;;;;;;;6.82;3.50;;;;;;;16.18;63.27;94972.31;4956993;28;20035;-81
2021/06/12 03:29:35;;;;;;;8.85;3.83;;;;;;;16.26;63.32;94967.56;4956395;28;20041;-83
2021/06/12 03:32:00;;;;;;;3.78;3.08;;;;;;;16.29;62.52;94959.22;4953249;28;20055;-83
2021/06/12 03:34:26;;;;;;;12.52;4.60;;;;;;;16.40;62.25;94966.00;4960928;28;20038;-83
2021/06/12 03:36:52;;;;;;;8.48;3.88;;;;;;;16.45;62.56;94960.78;4950852;28;20051;-83
2021/06/12 03:39:18;;;;;;;6.97;3.33;;;;;;;16.52;62.17;94962.06;4968643;28;20027;-83
2021/06/12 03:44:12;;;;;;;5.63;4.07;;;;;;;16.72;61.37;94966.50;4975892;28;20087;-83
2021/06/12 03:50:07;;;;;;;4.35;3.45;;;;;;;16.77;61.50;94971.78;4958352;28;20065;-82
2021/06/12 03:52:34;;;;;;;11.48;4.03;;;;;;;16.84;61.00;94978.56;4952199;29;20065;-83
2021/06/12 03:55:00;;;;;;;5.10;3.85;;;;;;;16.92;61.30;94980.63;4936313;29;20039;-83
2021/06/12 03:57:25;;;;;;;11.02;4.00;;;;;;;17.00;61.06;94969.59;4952305;29;20477;-83
2021/06/12 03:59:52;;;;;;;3.75;3.45;;;;;;;17.08;60.37;94969.84;4950923;28;20035;-83
2021/06/12 04:02:17;;;;;;;6.72;3.67;;;;;;;17.24;60.25;94970.53;4931919;29;20170;-82
2021/06/12 04:04:45;;;;;;;5.18;3.65;;;;;;;17.35;60.46;94966.81;4933338;29;20031;-83
2021/06/12 04:07:10;;;;;;;5.38;3.67;;;;;;;17.45;60.17;94967.84;4948833;29;20045;-82
2021/06/12 04:09:36;;;;;;;6.22;3.78;;;;;;;17.59;59.90;94964.34;4949560;29;20043;-83
2021/06/12 04:12:02;;;;;;;9.43;3.95;;;;;;;17.79;59.58;94968.75;4948364;29;20038;-83
2021/06/12 04:14:30;;;;;;;6.65;3.92;;;;;;;17.90;59.06;94975.50;4947504;29;20090;-83
2021/06/12 04:16:55;;;;;;;9.88;3.92;;;;;;;17.90;59.15;94975.50;4996874;23;20113;-82
2021/06/12 04:19:21;;;;;;;17.00;5.80;;;;;;;17.89;58.67;94979.19;4974435;28;20451;-83
2021/06/12 04:21:48;;;;;;;7.45;5.13;;;;;;;17.98;58.36;94979.41;4958679;28;20038;-83
2021/06/12 04:24:14;;;;;;;8.70;4.45;;;;;;;18.04;57.52;94980.13;4965398;28;20055;-84
2021/06/12 04:26:39;;;;;;;13.20;4.15;;;;;;;18.11;57.37;94972.72;4951910;28;20039;-84
2021/06/12 04:29:05;;;;;;;8.40;3.42;;;;;;;18.12;57.32;94988.25;4959313;28;20039;-84
2021/06/12 04:31:30;;;;;;;5.25;3.80;;;;;;;18.14;57.28;94982.72;4942336;28;20039;-83
2021/06/12 04:33:56;;;;;;;7.90;3.97;;;;;;;18.24;57.02;94978.16;4953031;28;20481;-82
2021/06/12 04:36:21;;;;;;;6.95;3.58;;;;;;;18.28;56.63;94976.53;4959041;28;20031;-82
2021/06/12 04:38:52;;;;;;;9.88;3.28;;;;;;;18.37;55.93;94979.34;4950816;28;20031;-83
2021/06/12 04:41:18;;;;;;;4.95;3.60;;;;;;;18.37;56.34;94976.72;4963896;28;20054;-84
2021/06/12 04:43:43;;;;;;;6.55;3.58;;;;;;;18.55;55.56;94978.69;4933195;28;20499;-82
2021/06/12 04:46:09;;;;;;;5.47;3.17;;;;;;;18.65;54.91;94984.94;4946564;28;20039;-83
2021/06/12 04:48:34;;;;;;;3.92;3.38;;;;;;;18.70;56.27;94990.16;4968768;28;20043;-84
2021/06/12 04:51:00;;;;;;;12.73;3.67;;;;;;;18.66;56.05;94997.06;4967360;23;20047;-84
2021/06/12 04:53:30;;;;;;;7.40;4.88;;;;;;;18.70;56.90;94998.06;4961023;28;20031;-83
2021/06/12 04:55:57;;;;;;;12.48;4.97;;;;;;;18.58;56.90;95001.06;4914876;29;20039;-83
2021/06/12 04:58:22;;;;;;;16.30;7.82;;;;;;;18.57;57.23;95008.16;4897679;29;20039;-83
2021/06/12 05:00:50;;;;;;;15.00;6.93;;;;;;;18.58;57.59;94995.78;4930711;29;20058;-81
2021/06/12 05:03:16;;;;;;;21.27;6.95;;;;;;;18.65;56.83;95006.00;4957852;29;20123;-84
2021/06/12 05:05:48;;;;;;;13.27;6.72;;;;;;;18.87;56.25;95003.69;4949912;29;20091;-84
2021/06/12 05:08:16;;;;;;;15.45;6.78;;;;;;;18.91;55.46;95010.00;4957369;29;20103;-84
2021/06/12 05:10:42;;;;;;;17.90;5.45;;;;;;;18.82;55.92;95001.13;4926203;29;20063;-83
2021/06/12 05:13:08;;;;;;;12.80;5.78;;;;;;;18.76;55.33;95010.13;4955574;29;20027;-84
2021/06/12 05:15:34;;;;;;;25.95;5.47;;;;;;;18.76;55.56;95012.78;4913351;29;20031;-84
2021/06/12 05:18:03;;;;;;;11.55;5.35;;;;;;;18.92;55.17;95011.56;4928742;29;20039;-84
2021/06/12 05:20:29;;;;;;;19.70;5.57;;;;;;;19.50;53.06;95012.22;4976036;23;20038;-84
2021/06/12 05:22:54;;;;;;;17.92;5.90;;;;;;;20.42;51.40;95007.59;4976259;28;20031;-83
2021/06/12 05:25:20;;;;;;;15.48;4.55;;;;;;;21.60;48.68;95012.34;4949803;28;20112;-85
2021/06/12 05:27:45;;;;;;;9.98;4.97;;;;;;;22.50;45.61;95010.66;4986633;23;20325;-84
2021/06/12 05:30:11;;;;;;;11.30;4.93;;;;;;;23.05;44.43;95008.50;4986244;28;20042;-85
2021/06/12 05:32:37;;;;;;;11.88;4.30;;;;;;;23.33;43.93;95015.19;4969910;28;20023;-87
2021/06/12 05:35:03;;;;;;;14.93;4.32;;;;;;;23.77;43.71;95017.97;4970262;28;20486;-85
2021/06/12 05:37:31;;;;;;;11.68;5.43;;;;;;;24.38;41.82;95011.63;4969618;28;20034;-86
2021/06/12 05:39:57;;;;;;;13.05;4.47;;;;;;;25.09;39.40;95009.34;4969706;28;20031;-85
2021/06/12 05:42:22;;;;;;;5.85;3.70;;;;;;;25.88;38.50;95007.09;5025757;23;20058;-86
2021/06/12 05:44:48;;;;;;;11.13;4.30;;;;;;;26.59;36.63;95015.81;4980640;28;20031;-87
2021/06/12 05:47:13;;;;;;;10.82;3.53;;;;;;;27.06;35.45;95012.06;4948786;28;20035;-87
2021/06/12 05:49:42;;;;;;;9.52;3.90;;;;;;;27.29;35.47;95015.88;4997541;23;20043;-85
2021/06/12 05:52:09;;;;;;;7.05;3.72;;;;;;;27.39;35.35;95009.31;4949802;29;20039;-88
2021/06/12 05:54:35;;;;;;;13.57;4.35;;;;;;;27.57;35.21;95017.88;4928054;29;20041;-85
2021/06/12 05:57:00;;;;;;;16.38;4.50;;;;;;;27.38;35.21;95005.88;4950419;29;20039;-85
2021/06/12 05:59:26;;;;;;;14.73;4.25;;;;;;;27.83;34.33;95006.88;4951864;29;20421;-85
2021/06/12 06:01:51;;;;;;;5.93;3.95;;;;;;;28.30;33.78;95012.47;4951306;29;20050;-86
2021/06/12 06:04:17;;;;;;;8.35;3.65;;;;;;;29.01;32.85;95006.38;4934553;29;20031;-84
2021/06/12 06:06:46;;;;;;;11.10;3.30;;;;;;;29.99;30.64;95005.63;4951241;29;20032;-85
2021/06/12 06:09:11;;;;;;;5.88;3.05;;;;;;;30.91;29.25;95012.88;4947590;29;20089;-84
2021/06/12 06:11:37;;;;;;;12.23;2.90;;;;;;;31.68;28.25;95011.88;4961253;29;20515;-85
2021/06/12 06:14:03;;;;;;;5.90;2.53;;;;;;;32.54;26.41;95008.44;4954594;29;20114;-86
2021/06/12 06:16:28;;;;;;;14.55;2.72;;;;;;;33.42;25.40;95010.53;4949837;29;20031;-86
2021/06/12 06:18:54;;;;;;;7.95;2.83;;;;;;;33.85;25.31;95008.94;4936953;29;20491;-85
2021/06/12 06:23:47;;;;;;;4.18;2.72;;;;;;;35.31;22.43;95003.28;5024103;23;20046;-84
2021/06/12 06:26:12;;;;;;;11.40;3.10;;;;;;;35.88;22.01;94998.69;4961546;28;20041;-84
2021/06/12 06:28:38;;;;;;;5.40;2.50;;;;;;;36.41;21.54;95003.19;4977746;28;20042;-83
2021/06/12 06:31:51;;;;;;;;;;;;;;;;;;;;;
2021/06/12 06:34:17;;;;;;;5.97;2.97;;;;;;;37.15;20.99;94988.50;4974160;28;20137;-85
2021/06/12 06:36:48;;;;;;;3.40;2.22;;;;;;;37.44;20.04;94999.16;5035830;23;20061;-84
2021/06/12 06:39:14;;;;;;;5.40;2.55;;;;;;;37.60;20.20;94995.94;4959299;28;20117;-83
2021/06/12 06:41:39;;;;;;;7.40;2.47;;;;;;;37.77;19.71;94992.31;4966840;28;20039;-83
2021/06/12 06:44:05;;;;;;;4.38;2.45;;;;;;;37.51;19.76;94994.44;4970055;28;20027;-83
2021/06/12 06:46:30;;;;;;;10.93;2.40;;;;;;;37.76;19.49;94996.97;4982023;28;20044;-83
2021/06/12 06:48:56;;;;;;;5.30;2.70;;;;;;;37.77;19.96;94995.00;4982402;28;20041;-84
2021/06/12 06:51:23;;;;;;;7.03;3.08;;;;;;;37.53;20.51;94992.09;4974685;28;20039;-85
2021/06/12 06:53:49;;;;;;;11.23;2.80;;;;;;;37.74;19.67;94982.22;4939364;28;20059;-85
2021/06/12 06:56:15;;;;;;;9.68;2.58;;;;;;;38.01;19.87;94990.50;5418428;23;20047;-88
2021/06/12 06:58:40;;;;;;;4.57;2.83;;;;;;;37.85;19.97;94989.09;4929569;29;20050;-85
2021/06/12 07:01:06;;;;;;;8.88;2.50;;;;;;;37.68;19.61;94991.97;4888267;29;20028;-85
2021/06/12 07:06:23;;;;;;;7.07;2.78;;;;;;;36.47;20.66;94974.53;5084066;23;20054;-85
2021/06/12 07:08:51;;;;;;;5.45;2.35;;;;;;;36.04;20.85;94987.44;4957164;28;20193;-84
2021/06/12 07:11:19;;;;;;;9.70;2.40;;;;;;;35.70;22.23;94979.75;4938320;29;20039;-84
2021/06/12 07:13:47;;;;;;;6.10;2.40;;;;;;;35.73;22.14;94981.66;4936781;29;20043;-85
2021/06/12 07:16:13;;;;;;;2.60;2.13;;;;;;;35.40;22.43;94968.56;4952598;29;20540;-85
2021/06/12 07:22:11;;;;;;;9.55;2.67;;;;;;;35.07;22.81;94967.00;4908733;29;20039;-85
2021/06/12 07:24:45;;;;;;;4.78;2.60;;;;;;;34.17;24.02;94965.13;4944924;28;20062;-86
2021/06/12 07:27:13;;;;;;;17.60;3.00;;;;;;;34.03;24.63;94971.28;4953865;29;20114;-85
2021/06/12 07:29:38;;;;;;;4.72;3.03;;;;;;;33.88;24.11;94986.59;4984623;23;20038;-83
2021/06/12 07:32:04;;;;;;;10.63;2.38;;;;;;;33.65;24.59;94977.94;4975847;28;20050;-83
2021/06/12 07:34:30;;;;;;;11.82;2.80;;;;;;;33.55;25.36;94973.25;4960363;28;20031;-83
2021/06/12 07:36:55;;;;;;;12.50;2.70;;;;;;;33.15;25.60;94977.53;4980766;28;20027;-83
2021/06/12 07:39:21;;;;;;;4.00;2.80;;;;;;;32.90;25.27;94971.16;5005640;23;20522;-83
2021/06/12 07:41:46;;;;;;;3.22;2.75;;;;;;;32.82;25.79;94967.59;4978593;28;20031;-84
2021/06/12 07:44:11;;;;;;;14.18;2.90;;;;;;;32.50;26.15;94965.31;4970790;28;20027;-82
2021/06/12 07:47:01;;;;;;;5.82;2.53;;;;;;;32.39;25.96;94961.00;4975246;28;20039;-83
2021/06/12 07:49:26;;;;;;;3.80;2.80;;;;;;;31.89;26.90;94971.88;4991851;23;20574;-83
2021/06/12 07:51:51;;;;;;;9.93;2.75;;;;;;;31.61;26.60;94958.00;5014818;23;20115;-84
2021/06/12 07:54:19;;;;;;;7.50;3.03;;;;;;;31.17;27.24;94966.50;4985581;28;20057;-88
2021/06/12 07:59:19;;;;;;;3.15;2.88;;;;;;;30.47;28.14;94956.06;5100864;23;20047;-85
2021/06/12 08:01:48;;;;;;;6.55;2.80;;;;;;;30.53;28.50;94951.16;4968694;28;20054;-90
2021/06/12 08:04:23;;;;;;;16.27;2.95;;;;;;;30.53;28.79;94961.91;5020011;23;20420;-88
2021/06/12 08:06:49;;;;;;;8.70;2.70;;;;;;;30.32;28.84;94959.59;4969659;28;20039;-86
2021/06/12 08:09:18;;;;;;;5.00;2.50;;;;;;;30.09;28.59;94959.50;4979391;28;20046;-87
2021/06/12 08:11:44;;;;;;;7.55;2.70;;;;;;;30.03;28.72;94952.84;4966524;28;20089;-88
2021/06/12 08:14:10;;;;;;;4.15;2.70;;;;;;;29.88;29.11;94962.50;4993453;23;20046;-84
2021/06/12 08:16:35;;;;;;;5.10;2.70;;;;;;;29.86;29.67;94962.06;4996232;28;20037;-83
2021/06/12 08:19:01;;;;;;;5.20;2.40;;;;;;;29.91;28.37;94961.03;5453744;23;20025;-78
2021/06/12 08:21:26;;;;;;;3.65;2.25;;;;;;;29.44;29.61;94954.59;4993893;28;20053;-85
2021/06/12 08:26:21;;;;;;;3.45;2.30;;;;;;;29.21;29.22;94951.00;5024269;23;20051;-84
2021/06/12 08:28:46;;;;;;;2.72;2.42;;;;;;;29.21;29.15;94956.38;4980038;28;21115;-84
2021/06/12 08:33:52;;;;;;;11.18;2.75;;;;;;;29.07;30.30;94934.59;5053657;23;20074;-84
2021/06/12 08:36:17;;;;;;;10.80;2.85;;;;;;;29.17;29.57;94940.22;4979801;28;20047;-82
2021/06/12 08:38:52;;;;;;;4.18;3.42;;;;;;;29.15;30.43;94942.47;4954400;28;20058;-82
2021/06/12 08:41:17;;;;;;;8.90;2.90;;;;;;;29.13;30.34;94939.38;4972240;28;20134;-84
2021/06/12 08:43:43;;;;;;;9.98;2.92;;;;;;;29.20;30.05;94941.44;4972106;28;20082;-83
2021/06/12 08:46:11;;;;;;;6.15;2.50;;;;;;;29.12;30.38;94932.44;4968320;28;20038;-83
2021/06/12 08:51:12;;;;;;;3.63;2.30;;;;;;;29.18;29.71;94941.00;5373711;23;20054;-83
2021/06/12 08:53:37;;;;;;;3.08;2.25;;;;;;;29.24;30.33;94940.38;4999744;28;20103;-82
2021/06/12 08:56:03;;;;;;;5.95;2.25;;;;;;;28.92;29.05;94923.56;5029869;23;20102;-86
2021/06/12 08:58:29;;;;;;;7.35;2.58;;;;;;;28.60;29.83;94917.38;4962158;29;20039;-86
2021/06/12 09:01:27;;;;;;;2.83;2.42;;;;;;;28.43;30.52;94911.56;5029865;23;20050;-85
2021/06/12 09:04:56;;;;;;;8.38;2.30;;;;;;;28.57;31.72;94912.72;5000047;28;20033;-86
2021/06/12 09:07:23;;;;;;;5.20;2.65;;;;;;;28.79;29.83;94922.03;4912807;28;21232;-87
2021/06/12 09:10:00;;;;;;;2.78;2.50;;;;;;;28.78;30.04;94919.72;4997040;28;20658;-86
2021/06/12 09:12:47;;;;;;;5.43;2.35;;;;;;;28.68;30.11;94919.13;4972311;28;20047;-86
2021/06/12 09:15:14;;;;;;;5.88;2.50;;;;;;;28.73;30.81;94909.28;4975618;28;20521;-87
2021/06/12 09:17:47;;;;;;;6.13;2.55;;;;;;;28.86;29.41;94897.38;4979214;28;20477;-87
2021/06/12 09:20:34;;;;;;;4.07;3.65;;;;;;;28.88;28.82;94911.22;4978300;28;20035;-87
2021/06/12 09:23:17;;;;;;;3.75;2.60;;;;;;;28.82;29.03;94908.00;4964520;28;20051;-84
2021/06/12 09:25:44;;;;;;;3.53;2.35;;;;;;;28.31;30.21;94915.06;4982534;28;20035;-86
2021/06/12 09:28:12;;;;;;;16.40;2.38;;;;;;;28.31;29.64;94904.38;4982258;28;20030;-82
2021/06/12 09:30:38;;;;;;;3.72;2.03;;;;;;;28.28;29.45;94905.06;4981703;28;20037;-86
2021/06/12 09:33:03;;;;;;;5.28;1.98;;;;;;;28.27;29.63;94892.81;5028265;23;20058;-84
2021/06/12 09:35:36;;;;;;;4.00;2.67;;;;;;;28.34;29.83;94898.34;4982077;28;20058;-83
2021/06/12 09:38:01;;;;;;;5.68;2.40;;;;;;;28.14;29.56;94900.06;4981259;28;20133;-84
2021/06/12 09:40:34;;;;;;;3.28;2.65;;;;;;;27.98;31.91;94886.66;4987356;28;20475;-84
2021/06/12 09:43:02;;;;;;;6.53;2.75;;;;;;;27.98;31.48;94892.00;4981248;28;20041;-84
2021/06/12 09:46:03;;;;;;;4.03;2.30;;;;;;;27.97;30.15;94895.78;4982442;28;20046;-85
2021/06/12 09:48:28;;;;;;;6.18;2.63;;;;;;;27.85;30.27;94893.19;4932824;28;20043;-86
2021/06/12 09:51:17;;;;;;;5.20;2.30;;;;;;;27.69;29.75;94889.69;4982730;28;20046;-83
2021/06/12 09:53:46;;;;;;;4.32;2.00;;;;;;;27.75;30.29;94878.41;4953359;28;20030;-84
2021/06/12 09:56:12;;;;;;;2.20;2.00;;;;;;;27.76;30.42;94885.28;4978356;28;20093;-82
2021/06/12 09:58:40;;;;;;;3.47;2.20;;;;;;;27.67;30.45;94881.22;4980789;28;20034;-88
2021/06/12 10:01:07;;;;;;;2.10;1.98;;;;;;;27.60;31.25;94880.97;4986364;28;20142;-87
2021/06/12 10:03:32;;;;;;;5.82;2.10;;;;;;;27.70;30.49;94883.22;4984969;28;20102;-85
2021/06/12 10:06:21;;;;;;;8.90;2.22;;;;;;;27.88;30.74;94873.03;4960344;28;20043;-83
2021/06/12 10:08:51;;;;;;;3.95;2.40;;;;;;;27.86;30.59;94883.28;4954904;28;20035;-86
2021/06/12 10:11:23;;;;;;;3.75;2.15;;;;;;;27.93;30.96;94873.53;4974278;28;20034;-84
2021/06/12 10:13:48;;;;;;;3.95;2.00;;;;;;;28.15;31.02;94866.09;4983487;28;20122;-85
2021/06/12 10:16:15;;;;;;;4.93;2.05;;;;;;;28.19;29.40;94875.78;4976084;28;20053;-83
2021/06/12 10:18:41;;;;;;;7.63;2.00;;;;;;;28.08;30.51;94864.78;4999759;28;20058;-83
2021/06/12 10:21:14;;;;;;;2.70;2.20;;;;;;;28.21;29.73;94862.06;4974382;28;20035;-83
2021/06/12 10:23:44;;;;;;;2.67;2.13;;;;;;;27.99;29.81;94872.19;4984326;28;20039;-84
2021/06/12 10:26:10;;;;;;;2.97;2.42;;;;;;;27.48;30.41;94861.19;5117830;23;20047;-83
2021/06/12 10:28:36;;;;;;;2.83;2.00;;;;;;;27.19;30.74;94867.59;4955436;28;20041;-83
2021/06/12 10:31:12;;;;;;;3.10;2.03;;;;;;;27.20;30.87;94860.38;4926769;29;20043;-82
2021/06/12 10:33:46;;;;;;;3.58;2.10;;;;;;;27.44;30.56;94856.84;4945450;29;20122;-83
2021/06/12 10:36:19;;;;;;;1.73;1.63;;;;;;;27.42;30.82;94849.19;4954883;28;20059;-83
2021/06/12 10:38:45;;;;;;;3.13;2.10;;;;;;;27.21;31.22;94849.34;4975702;28;20091;-83
2021/06/12 10:41:27;;;;;;;3.97;1.83;;;;;;;27.09;30.91;94853.91;4960065;28;20078;-82
2021/06/12 10:43:55;;;;;;;8.48;2.25;;;;;;;27.07;30.66;94848.13;4948197;29;20031;-83
2021/06/12 10:46:23;;;;;;;3.85;2.33;;;;;;;26.80;31.57;94850.31;4957488;28;20094;-83
2021/06/12 10:48:56;;;;;;;6.80;2.55;;;;;;;26.73;32.44;94844.00;4956946;28;20035;-83
2021/06/12 10:51:27;;;;;;;3.08;2.75;;;;;;;26.69;31.92;94849.22;4914380;29;20031;-83
2021/06/12 10:54:11;;;;;;;9.13;2.30;;;;;;;26.75;32.13;94847.88;4956589;29;20122;-83
2021/06/12 10:56:43;;;;;;;5.45;2.25;;;;;;;26.44;32.48;94847.63;4957285;29;20042;-83
2021/06/12 10:59:09;;;;;;;3.58;2.65;;;;;;;26.21;33.74;94845.34;4956668;28;20035;-83
2021/06/12 11:01:37;;;;;;;8.88;2.30;;;;;;;25.76;35.28;94847.19;4954649;29;20082;-83
2021/06/12 11:06:42;;;;;;;3.45;2.97;;;;;;;24.70;37.31;94857.97;4956914;29;20031;-84
2021/06/12 11:09:13;;;;;;;3.78;2.47;;;;;;;24.26;38.24;94849.34;4956473;28;20039;-83
2021/06/12 11:11:42;;;;;;;12.97;2.80;;;;;;;23.81;39.33;94852.41;4956663;29;20039;-83
2021/06/12 11:14:28;;;;;;;3.08;2.75;;;;;;;24.06;38.75;94840.16;4957091;29;20291;-84
2021/06/12 11:17:09;;;;;;;6.93;2.67;;;;;;;24.29;39.38;94839.97;4956118;29;20035;-83
2021/06/12 11:19:39;;;;;;;2.80;2.45;;;;;;;24.58;38.21;94832.09;4955898;29;20039;-83
2021/06/12 11:22:23;;;;;;;2.95;2.63;;;;;;;24.84;36.22;94823.97;4944201;29;20039;-83
2021/06/12 11:24:52;;;;;;;2.75;2.28;;;;;;;25.03;35.55;94827.00;4963060;28;20501;-84
2021/06/12 11:27:41;;;;;;;7.53;2.10;;;;;;;25.31;35.22;94826.53;4949379;29;20118;-83
2021/06/12 11:30:14;;;;;;;2.38;2.28;;;;;;;25.14;35.56;94830.06;4946582;29;20035;-82
2021/06/12 11:32:41;;;;;;;4.57;2.63;;;;;;;25.35;36.53;94825.53;4957897;29;20031;-83
2021/06/12 11:35:07;;;;;;;8.63;2.53;;;;;;;25.52;37.38;94821.97;4890789;29;20031;-83
2021/06/12 11:37:32;;;;;;;4.88;2.10;;;;;;;25.43;37.41;94807.97;4962534;28;20035;-83
2021/06/12 11:39:59;;;;;;;7.50;2.28;;;;;;;25.25;38.37;94812.63;4948239;29;20038;-83
2021/06/12 11:42:39;;;;;;;3.00;2.20;;;;;;;24.88;39.03;94816.13;4958132;29;20113;-83
2021/06/12 11:45:19;;;;;;;3.17;2.75;;;;;;;24.37;40.39;94818.69;4933990;29;20420;-83
2021/06/12 11:47:45;;;;;;;2.78;2.38;;;;;;;24.02;40.74;94830.50;4938169;23;20068;-83
2021/06/12 11:50:10;;;;;;;3.38;2.20;;;;;;;23.87;41.18;94821.91;4927310;29;20051;-83
2021/06/12 11:52:40;;;;;;;9.02;2.30;;;;;;;23.81;41.50;94822.41;4928836;29;20033;-82
2021/06/12 11:55:13;;;;;;;8.98;2.40;;;;;;;23.73;41.20;94820.53;4929788;29;20086;-83
2021/06/12 11:57:46;;;;;;;6.93;2.88;;;;;;;23.71;40.60;94820.84;4929492;29;20492;-84
2021/06/12 12:00:31;;;;;;;5.35;2.67;;;;;;;23.54;40.75;94842.06;5003956;23;20035;-83
2021/06/12 12:03:12;;;;;;;6.45;3.10;;;;;;;21.93;45.43;94852.25;4967200;28;20106;-83
2021/06/12 12:05:43;;;;;;;9.93;2.83;;;;;;;21.01;48.46;94852.72;4959996;28;20187;-83
2021/06/12 12:08:16;;;;;;;3.78;2.60;;;;;;;20.63;49.08;94856.34;4958689;28;20030;-82
2021/06/12 12:10:44;;;;;;;3.58;2.72;;;;;;;20.67;48.72;94859.22;4955941;28;20042;-83